Airfield :
LOGIN :

Register | Disclaimer

   EN    FR    IT 

 










Legend :    VFR   Marginal VFR   IFR   Intensive IFR   Very Intensive IFR
Visi :
Ceiling :
>= 8 km
>= 3000ft
5 to 8 km
1000 to 3000 ft
1500m to 5 km
500 to 1000 ft
800 to 1500m
200 to 500 ft
< 800m
< 200 ft
Symbols :   Thunderstorms  Fog  Heavy snow  Heavy precipitations  Wind > 20 kt
SIGMETs :     Misc.  Thunderstorms  Icing  Turbulence  Mountain Waves  Volcanic Ashes






- Airport Elevation : 182 ft
- IATA code : KCO


LTBQ - Cengiz Topel

CURRENT METAR :
  • 211350Z 20003KT 170V240 8000 -RA SCT009 BKN014 06/06 Q1018 BECMG SCT010 BKN018 BKN070

EXPIRED METARs :
  • 211250Z VRB01KT 6000 -RA SCT013 BKN017 BKN070 06/06 Q1017 TEMPO 03014KT
  • 211150Z 00000KT 8000 -SHRA SCT013 BKN018 BKN070 07/06 Q1017 TEMPO 03014KT

TAF TAF LTBQ
Valid from the 21 at 15:00 until the 22 at 00:00 UTC


211340Z 2115/2124 VRB02KT 7000 -RA SCT010 BKN018 BKN070
TEMPO 2115/2118 SCT008 BKN015



MET'MAP, your aeronautical weather chart ! - Copyright ORBIFLY December 2007 - Disclaimer

ORBIFLY MET'MAP TEAM :

Programming & Development : Alexandra Zaïnal
Concept & original design : Baudouin d'Aumeries
Assistance for programming : Marc-Olivier Méhu
Technical & hardware support : Manuel Goepfert

Contact : metmap@orbifly.com




SOURCES & CREDITS :

   NOAA